Time;durP1;ratioP1;P1;durP2;ratioP2;P2;SDS_P1;SDS_P2;PMS_P1;PMS_P2;Temp;Humidity;BMP_temperature;BMP_pressure;BME280_temperature;BME280_humidity;BME280_pressure;Samples;Min_cycle;Max_cycle;Signal;HPM_P1;HPM_P2
2022/07/19 00:01:45;;;;;;;;;;;22.00;77.40;;;;;;5111384;28;19949;-74
2022/07/19 00:04:11;;;;;;;;;;;21.90;79.00;;;;;;5099616;28;20359;-75
2022/07/19 00:06:38;;;;;;;;;;;21.80;82.10;;;;;;5112448;28;20018;-75
2022/07/19 00:09:05;;;;;;;;;;;21.60;84.20;;;;;;5094389;28;19928;-75
2022/07/19 00:11:32;;;;;;;;;;;21.40;85.10;;;;;;5104498;28;19970;-75
2022/07/19 00:14:00;;;;;;;;;;;21.50;86.40;;;;;;5098317;28;20310;-75
2022/07/19 00:16:27;;;;;;;;;;;21.40;87.30;;;;;;5092943;28;20387;-75
2022/07/19 00:18:53;;;;;;;;;;;21.30;87.80;;;;;;5099870;28;19955;-75
2022/07/19 00:21:20;;;;;;;;;;;21.50;88.60;;;;;;5097098;28;19928;-75
2022/07/19 00:23:47;;;;;;;;;;;21.30;90.10;;;;;;5107638;28;19993;-75
2022/07/19 00:26:13;;;;;;;;;;;21.20;90.80;;;;;;5093147;28;19980;-75
2022/07/19 00:28:40;;;;;;;;;;;21.20;91.30;;;;;;5094796;28;19931;-75
2022/07/19 00:31:08;;;;;;;;;;;21.20;91.70;;;;;;5095221;28;20024;-75
2022/07/19 00:33:35;;;;;;;;;;;21.20;92.50;;;;;;5094230;28;19924;-75
2022/07/19 00:36:02;;;;;;;;;;;21.10;92.80;;;;;;5109911;28;19924;-75
2022/07/19 00:38:28;;;;;;;;;;;21.10;93.30;;;;;;5102604;28;19966;-74
2022/07/19 00:40:55;;;;;;;;;;;21.00;93.80;;;;;;5105591;28;20430;-75
2022/07/19 00:43:22;;;;;;;;;;;20.90;94.00;;;;;;5092872;28;19970;-75
2022/07/19 00:45:48;;;;;;;;;;;20.80;94.20;;;;;;5103702;28;19993;-74
2022/07/19 00:48:16;;;;;;;;;;;20.80;94.40;;;;;;5091311;28;19928;-75
2022/07/19 00:50:43;;;;;;;;;;;20.90;94.90;;;;;;5104568;28;20018;-75
2022/07/19 00:53:10;;;;;;;;;;;20.80;95.20;;;;;;5091469;28;19975;-76
2022/07/19 00:55:38;;;;;;;;;;;20.60;95.90;;;;;;5096460;28;20358;-75
2022/07/19 00:58:05;;;;;;;;;;;20.60;96.20;;;;;;5091547;28;19939;-76
2022/07/19 01:00:33;;;;;;;;;;;20.60;96.20;;;;;;5091458;28;19924;-75
2022/07/19 01:03:00;;;;;;;;;;;20.60;96.10;;;;;;5093249;28;19967;-76
2022/07/19 01:05:28;;;;;;;;;;;20.60;95.90;;;;;;5092136;28;20014;-74
2022/07/19 01:07:55;;;;;;;;;;;20.70;96.00;;;;;;5092812;28;20017;-74
2022/07/19 01:10:21;;;;;;;;;;;20.70;96.00;;;;;;5102238;28;20014;-74
2022/07/19 01:12:48;;;;;;;;;;;20.60;96.00;;;;;;5107494;28;19955;-75
2022/07/19 01:15:16;;;;;;;;;;;20.60;96.50;;;;;;5107120;28;19978;-76
2022/07/19 01:17:42;;;;;;;;;;;20.60;96.60;;;;;;5093991;28;19924;-76
2022/07/19 01:20:10;;;;;;;;;;;20.50;97.10;;;;;;5102993;28;19924;-76
2022/07/19 01:22:38;;;;;;;;;;;20.50;97.10;;;;;;5108799;28;20023;-75
2022/07/19 01:25:05;;;;;;;;;;;20.50;97.10;;;;;;5111992;27;19970;-74
2022/07/19 01:27:31;;;;;;;;;;;20.50;97.30;;;;;;5112664;28;19975;-74
2022/07/19 01:29:58;;;;;;;;;;;20.30;97.30;;;;;;5106945;28;20029;-73
2022/07/19 01:32:25;;;;;;;;;;;20.30;98.00;;;;;;5106634;28;19924;-73
2022/07/19 01:34:51;;;;;;;;;;;20.20;98.20;;;;;;5094435;28;20027;-75
2022/07/19 01:37:18;;;;;;;;;;;20.20;98.70;;;;;;5094659;28;19986;-74
2022/07/19 01:39:46;;;;;;;;;;;20.10;99.00;;;;;;5102644;27;20367;-73
2022/07/19 01:42:13;;;;;;;;;;;20.10;99.40;;;;;;5095917;27;20034;-73
2022/07/19 01:44:39;;;;;;;;;;;20.10;99.80;;;;;;5096352;27;20417;-73
2022/07/19 01:47:06;;;;;;;;;;;20.00;99.90;;;;;;5093846;27;19924;-73
2022/07/19 01:49:33;;;;;;;;;;;19.90;99.90;;;;;;5100643;28;20019;-74
2022/07/19 01:51:59;;;;;;;;;;;19.90;99.90;;;;;;5096218;27;20341;-73
2022/07/19 01:54:26;;;;;;;;;;;20.00;99.90;;;;;;5104194;28;19960;-74
2022/07/19 01:56:54;;;;;;;;;;;20.10;99.90;;;;;;5106105;28;20011;-73
2022/07/19 01:59:21;;;;;;;;;;;20.10;99.90;;;;;;5094229;27;19930;-73
2022/07/19 02:01:47;;;;;;;;;;;20.00;99.90;;;;;;5106056;28;19934;-73
2022/07/19 02:04:14;;;;;;;;;;;19.90;99.90;;;;;;5096960;28;20006;-73
2022/07/19 02:06:41;;;;;;;;;;;19.90;99.90;;;;;;5112013;27;19986;-72
2022/07/19 02:09:07;;;;;;;;;;;19.90;99.90;;;;;;5094438;27;20006;-73
2022/07/19 02:11:37;;;;;;;;;;;19.80;99.90;;;;;;5101050;28;20015;-73
2022/07/19 02:14:07;;;;;;;;;;;19.70;99.90;;;;;;5093739;28;20020;-73
2022/07/19 02:16:35;;;;;;;;;;;19.60;99.90;;;;;;5093896;28;19975;-74
2022/07/19 02:19:01;;;;;;;;;;;19.60;99.90;;;;;;5095410;28;19975;-75
2022/07/19 02:21:28;;;;;;;;;;;19.70;99.90;;;;;;5109099;28;19971;-74
2022/07/19 02:23:55;;;;;;;;;;;19.70;99.90;;;;;;5095880;28;19967;-74
2022/07/19 02:26:21;;;;;;;;;;;19.80;99.90;;;;;;5093685;27;19924;-74
2022/07/19 02:28:48;;;;;;;;;;;19.80;99.90;;;;;;5104617;28;20018;-73
2022/07/19 02:31:16;;;;;;;;;;;19.70;99.90;;;;;;5094301;28;19924;-75
2022/07/19 02:33:43;;;;;;;;;;;19.70;99.90;;;;;;5097459;27;19931;-75
2022/07/19 02:36:10;;;;;;;;;;;19.70;99.90;;;;;;5109502;28;19930;-74
2022/07/19 02:38:36;;;;;;;;;;;19.70;99.90;;;;;;5094333;27;20458;-74
2022/07/19 02:41:03;;;;;;;;;;;19.50;99.90;;;;;;5110636;28;20011;-74
2022/07/19 02:43:30;;;;;;;;;;;19.50;99.90;;;;;;5101802;28;19975;-73
2022/07/19 02:45:56;;;;;;;;;;;19.50;99.90;;;;;;5098735;28;19924;-73
2022/07/19 02:48:24;;;;;;;;;;;19.50;99.90;;;;;;5093276;27;19928;-73
2022/07/19 02:50:51;;;;;;;;;;;19.40;99.90;;;;;;5110211;28;20002;-72
2022/07/19 02:53:18;;;;;;;;;;;19.30;99.90;;;;;;5100916;27;20383;-73
2022/07/19 02:55:44;;;;;;;;;;;19.20;99.90;;;;;;5096811;27;20015;-73
2022/07/19 02:58:11;;;;;;;;;;;19.20;99.90;;;;;;5097766;28;20015;-73
2022/07/19 03:00:38;;;;;;;;;;;19.10;99.90;;;;;;5106875;27;20092;-73
2022/07/19 03:05:47;;;;;;;;;;;19.10;99.90;;;;;;5108081;28;20573;-73
2022/07/19 03:08:14;;;;;;;;;;;19.30;99.90;;;;;;5103093;28;20014;-73
2022/07/19 03:10:40;;;;;;;;;;;19.30;99.90;;;;;;5109603;28;20441;-73
2022/07/19 03:13:08;;;;;;;;;;;19.20;99.90;;;;;;5106802;27;19966;-72
2022/07/19 03:15:35;;;;;;;;;;;19.10;99.90;;;;;;5109488;28;19923;-72
2022/07/19 03:18:02;;;;;;;;;;;19.10;99.90;;;;;;5112779;28;19959;-73
2022/07/19 03:20:28;;;;;;;;;;;19.00;99.90;;;;;;5098389;27;19928;-72
2022/07/19 03:22:56;;;;;;;;;;;19.10;99.90;;;;;;5095700;27;19924;-74
2022/07/19 03:25:23;;;;;;;;;;;19.10;99.90;;;;;;5097001;28;20019;-73
2022/07/19 03:27:50;;;;;;;;;;;19.00;99.90;;;;;;5095535;28;20299;-73
2022/07/19 03:30:17;;;;;;;;;;;18.90;99.90;;;;;;5111309;28;19930;-73
2022/07/19 03:32:43;;;;;;;;;;;18.90;99.90;;;;;;5109339;28;20335;-73
2022/07/19 03:35:10;;;;;;;;;;;18.90;99.90;;;;;;5107208;28;20023;-73
2022/07/19 03:37:37;;;;;;;;;;;19.00;99.90;;;;;;5112570;28;19923;-73
2022/07/19 03:40:06;;;;;;;;;;;19.10;99.90;;;;;;5103415;28;20007;-73
2022/07/19 03:42:33;;;;;;;;;;;19.10;99.90;;;;;;5098131;27;20003;-72
2022/07/19 03:44:59;;;;;;;;;;;19.30;99.90;;;;;;5096352;28;19971;-73
2022/07/19 03:47:26;;;;;;;;;;;19.40;99.90;;;;;;5091991;28;20470;-74
2022/07/19 03:49:53;;;;;;;;;;;19.40;99.90;;;;;;5091637;28;20011;-73
2022/07/19 03:52:19;;;;;;;;;;;19.40;99.90;;;;;;5091981;28;19967;-73
2022/07/19 03:54:46;;;;;;;;;;;19.40;99.90;;;;;;5110007;28;19947;-73
2022/07/19 03:57:14;;;;;;;;;;;19.30;99.90;;;;;;5107670;27;19930;-73
2022/07/19 03:59:41;;;;;;;;;;;19.30;99.90;;;;;;5108176;28;19924;-73
2022/07/19 04:02:07;;;;;;;;;;;19.30;99.90;;;;;;5096507;28;19975;-74
2022/07/19 04:04:34;;;;;;;;;;;19.30;99.90;;;;;;5099956;27;19963;-77
2022/07/19 04:07:01;;;;;;;;;;;19.30;99.90;;;;;;5104778;28;20011;-74
2022/07/19 04:09:27;;;;;;;;;;;19.40;99.90;;;;;;5096398;28;19978;-74
2022/07/19 04:11:54;;;;;;;;;;;19.50;99.90;;;;;;5092356;28;20374;-72
2022/07/19 04:14:22;;;;;;;;;;;19.50;99.90;;;;;;5097527;28;19955;-74
2022/07/19 04:16:49;;;;;;;;;;;19.60;99.90;;;;;;5106456;28;20026;-73
2022/07/19 04:19:16;;;;;;;;;;;19.50;99.90;;;;;;5102089;28;20019;-74
2022/07/19 04:21:42;;;;;;;;;;;19.40;99.90;;;;;;5101355;28;20010;-74
2022/07/19 04:24:09;;;;;;;;;;;19.30;99.90;;;;;;5093071;28;20387;-74
2022/07/19 04:26:36;;;;;;;;;;;19.30;99.90;;;;;;5091773;28;19924;-74
2022/07/19 04:29:02;;;;;;;;;;;19.30;99.90;;;;;;5098857;28;20018;-74
2022/07/19 04:31:30;;;;;;;;;;;19.40;99.90;;;;;;5090996;28;19964;-74
2022/07/19 04:33:57;;;;;;;;;;;19.40;99.90;;;;;;5104860;28;19923;-74
2022/07/19 04:36:24;;;;;;;;;;;19.40;99.90;;;;;;5109919;28;20059;-74
2022/07/19 04:38:50;;;;;;;;;;;19.50;99.90;;;;;;5091132;28;20299;-73
2022/07/19 04:41:17;;;;;;;;;;;19.50;99.90;;;;;;5101711;28;20022;-75
2022/07/19 04:43:44;;;;;;;;;;;19.60;99.90;;;;;;5090749;28;20018;-75
2022/07/19 04:46:10;;;;;;;;;;;19.60;99.90;;;;;;5100716;28;19931;-72
2022/07/19 04:48:40;;;;;;;;;;;19.60;99.90;;;;;;5100760;28;20021;-74
2022/07/19 04:51:07;;;;;;;;;;;19.70;99.90;;;;;;5093714;28;19977;-74
2022/07/19 04:53:34;;;;;;;;;;;19.80;99.90;;;;;;5091524;28;19975;-73
2022/07/19 04:56:01;;;;;;;;;;;19.90;99.90;;;;;;5108720;28;20362;-74
2022/07/19 04:58:27;;;;;;;;;;;20.00;99.90;;;;;;5111754;28;20016;-74
2022/07/19 05:00:54;;;;;;;;;;;20.10;99.90;;;;;;5101999;27;20015;-74
2022/07/19 05:03:21;;;;;;;;;;;20.20;99.90;;;;;;5110977;28;19978;-73
2022/07/19 05:05:49;;;;;;;;;;;20.30;99.90;;;;;;5096494;28;20011;-73
2022/07/19 05:08:17;;;;;;;;;;;20.40;99.90;;;;;;5102142;27;19963;-73
2022/07/19 05:10:43;;;;;;;;;;;20.50;99.90;;;;;;5097936;28;20470;-72
2022/07/19 05:13:10;;;;;;;;;;;20.60;99.90;;;;;;5095684;28;20024;-72
2022/07/19 05:15:37;;;;;;;;;;;20.70;99.90;;;;;;5094950;27;19967;-73
2022/07/19 05:18:04;;;;;;;;;;;20.70;99.90;;;;;;5095049;28;20381;-73
2022/07/19 05:20:30;;;;;;;;;;;20.70;99.90;;;;;;5098839;28;19954;-74
2022/07/19 05:22:58;;;;;;;;;;;20.80;99.90;;;;;;5097726;27;19924;-74
2022/07/19 05:25:25;;;;;;;;;;;20.80;99.90;;;;;;5094120;28;20014;-74
2022/07/19 05:27:52;;;;;;;;;;;20.80;99.90;;;;;;5109901;28;19963;-74
2022/07/19 05:30:18;;;;;;;;;;;20.90;99.90;;;;;;5110738;28;20015;-74
2022/07/19 05:32:45;;;;;;;;;;;21.00;99.90;;;;;;5101500;27;20016;-74
2022/07/19 05:35:12;;;;;;;;;;;21.00;99.90;;;;;;5100672;27;20004;-73
2022/07/19 05:37:38;;;;;;;;;;;20.90;99.90;;;;;;5109044;28;19924;-74
2022/07/19 05:40:07;;;;;;;;;;;21.00;99.80;;;;;;5105500;27;20010;-74
2022/07/19 05:42:34;;;;;;;;;;;21.00;99.20;;;;;;5114094;28;20030;-75
2022/07/19 05:45:01;;;;;;;;;;;21.20;98.70;;;;;;5108258;27;20298;-75
2022/07/19 05:47:28;;;;;;;;;;;21.30;98.30;;;;;;5109942;27;20390;-74
2022/07/19 05:49:55;;;;;;;;;;;21.40;98.50;;;;;;5098533;28;19963;-73
2022/07/19 05:52:22;;;;;;;;;;;21.50;98.00;;;;;;5108088;27;20443;-73
2022/07/19 05:54:49;;;;;;;;;;;21.70;97.60;;;;;;5110145;27;19924;-73
2022/07/19 05:57:17;;;;;;;;;;;21.90;96.90;;;;;;5114549;28;19930;-73
2022/07/19 05:59:44;;;;;;;;;;;22.00;96.70;;;;;;5099602;27;19924;-73
2022/07/19 06:02:10;;;;;;;;;;;22.20;96.10;;;;;;5100086;27;19924;-73
2022/07/19 06:04:37;;;;;;;;;;;22.50;95.10;;;;;;5099209;27;19972;-75
2022/07/19 06:07:04;;;;;;;;;;;24.00;92.70;;;;;;5098457;27;19970;-76
2022/07/19 06:09:31;;;;;;;;;;;25.30;89.30;;;;;;5109188;28;20435;-75
2022/07/19 06:11:57;;;;;;;;;;;26.40;79.30;;;;;;5096393;27;19976;-75
2022/07/19 06:14:25;;;;;;;;;;;26.80;71.40;;;;;;5094553;27;19963;-74
2022/07/19 06:16:53;;;;;;;;;;;27.00;66.60;;;;;;5102616;28;20471;-76
2022/07/19 06:19:21;;;;;;;;;;;27.70;62.70;;;;;;5097768;28;20333;-77
2022/07/19 06:21:47;;;;;;;;;;;27.90;58.00;;;;;;5093703;28;20309;-77
2022/07/19 06:24:14;;;;;;;;;;;27.90;56.90;;;;;;5097743;27;19924;-76
2022/07/19 06:26:41;;;;;;;;;;;27.90;55.00;;;;;;5094715;28;20383;-77
2022/07/19 06:29:07;;;;;;;;;;;28.20;54.90;;;;;;5091828;27;19931;-76
2022/07/19 06:31:35;;;;;;;;;;;28.50;52.40;;;;;;5106993;27;20015;-75
2022/07/19 06:34:02;;;;;;;;;;;28.90;49.10;;;;;;5096627;27;20015;-76
2022/07/19 06:36:29;;;;;;;;;;;28.60;48.10;;;;;;5097682;27;19981;-76
2022/07/19 06:38:56;;;;;;;;;;;27.70;49.60;;;;;;5096630;27;19932;-75
2022/07/19 06:41:22;;;;;;;;;;;26.40;52.50;;;;;;5092493;27;19967;-77
2022/07/19 06:43:49;;;;;;;;;;;25.90;56.00;;;;;;5094689;27;20350;-77
2022/07/19 06:46:16;;;;;;;;;;;25.70;57.50;;;;;;5097555;27;19959;-78
2022/07/19 06:48:44;;;;;;;;;;;25.70;57.50;;;;;;5096885;27;19965;-77
2022/07/19 06:51:11;;;;;;;;;;;25.70;58.50;;;;;;5098243;27;19924;-77
2022/07/19 06:53:37;;;;;;;;;;;27.10;57.20;;;;;;5097764;27;20010;-77
2022/07/19 06:56:04;;;;;;;;;;;29.50;51.90;;;;;;5095971;27;19956;-77
2022/07/19 06:58:31;;;;;;;;;;;31.00;46.60;;;;;;5095650;27;19927;-77
2022/07/19 07:01:00;;;;;;;;;;;31.20;50.10;;;;;;5098327;28;20092;-77
2022/07/19 07:03:27;;;;;;;;;;;31.80;57.00;;;;;;5101178;28;19932;-78
2022/07/19 07:05:55;;;;;;;;;;;33.40;65.70;;;;;;5097322;27;20039;-77
2022/07/19 07:08:21;;;;;;;;;;;34.70;25.80;;;;;;5098178;27;19928;-78
2022/07/19 07:10:48;;;;;;;;;;;35.90;22.40;;;;;;5093233;28;19924;-77
2022/07/19 07:13:15;;;;;;;;;;;36.30;19.20;;;;;;5094616;28;19966;-75
2022/07/19 07:15:43;;;;;;;;;;;36.60;17.70;;;;;;5102697;28;20014;-76
2022/07/19 07:18:10;;;;;;;;;;;37.00;16.00;;;;;;5102128;28;20046;-76
2022/07/19 07:20:37;;;;;;;;;;;;;;;;;;5095012;27;19931;-77
2022/07/19 07:23:05;;;;;;;;;;;38.10;12.90;;;;;;5097773;27;19925;-77
2022/07/19 07:25:32;;;;;;;;;;;38.60;12.20;;;;;;5096033;27;19967;-77
2022/07/19 07:27:59;;;;;;;;;;;39.20;10.20;;;;;;5096256;28;19928;-79
2022/07/19 07:30:25;;;;;;;;;;;39.00;8.80;;;;;;5096018;28;20286;-79
2022/07/19 07:32:52;;;;;;;;;;;38.80;8.40;;;;;;5105071;28;20008;-78
2022/07/19 07:35:19;;;;;;;;;;;38.50;8.50;;;;;;5097494;28;19930;-79
2022/07/19 07:37:45;;;;;;;;;;;38.50;8.60;;;;;;5098823;28;19998;-76
2022/07/19 07:40:14;;;;;;;;;;;38.60;7.90;;;;;;5095996;28;20413;-78
2022/07/19 07:42:40;;;;;;;;;;;39.00;7.70;;;;;;5095692;27;19979;-78
2022/07/19 07:45:09;;;;;;;;;;;39.90;6.60;;;;;;5100318;28;20333;-80
2022/07/19 07:47:36;;;;;;;;;;;39.90;5.90;;;;;;5096952;27;20321;-79
2022/07/19 07:50:03;;;;;;;;;;;39.70;5.50;;;;;;5096554;28;20307;-78
2022/07/19 07:52:30;;;;;;;;;;;39.80;5.20;;;;;;5097281;28;20544;-79
2022/07/19 07:54:57;;;;;;;;;;;40.10;4.90;;;;;;5092474;28;19935;-79
2022/07/19 07:57:25;;;;;;;;;;;40.60;17.50;;;;;;5093438;27;19939;-77
2022/07/19 07:59:52;;;;;;;;;;;41.10;16.60;;;;;;5091641;27;19932;-80
2022/07/19 08:02:19;;;;;;;;;;;41.40;17.30;;;;;;5097510;27;19927;-77
2022/07/19 08:04:45;;;;;;;;;;;41.70;25.40;;;;;;5093709;28;19943;-78
2022/07/19 08:07:12;;;;;;;;;;;41.50;25.30;;;;;;5091843;28;19935;-81
2022/07/19 08:09:39;;;;;;;;;;;41.30;24.90;;;;;;5091180;28;19924;-80
2022/07/19 08:12:06;;;;;;;;;;;41.40;22.80;;;;;;5092141;28;20439;-79
2022/07/19 08:14:34;;;;;;;;;;;41.60;22.10;;;;;;5098242;27;19976;-78
2022/07/19 08:17:01;;;;;;;;;;;;;;;;;;5098205;27;20023;-78
2022/07/19 08:19:28;;;;;;;;;;;;;;;;;;5097040;28;20022;-76
2022/07/19 08:21:55;;;;;;;;;;;;;;;;;;5099027;28;19923;-78
2022/07/19 08:24:22;;;;;;;;;;;;;;;;;;5100904;28;19923;-78
2022/07/19 08:26:49;;;;;;;;;;;;;;;;;;5094957;28;20294;-77
2022/07/19 08:29:16;;;;;;;;;;;;;;;;;;5097077;28;22543;-78
2022/07/19 08:31:43;;;;;;;;;;;;;;;;;;5097831;27;20007;-77
2022/07/19 08:34:10;;;;;;;;;;;;;;;;;;5099618;27;20507;-78
2022/07/19 08:36:37;;;;;;;;;;;;;;;;;;5100313;27;19977;-81
2022/07/19 08:39:04;;;;;;;;;;;;;;;;;;5102145;28;20023;-75
2022/07/19 08:41:31;;;;;;;;;;;;;;;;;;5098234;27;20010;-78
2022/07/19 08:43:58;;;;;;;;;;;;;;;;;;5107958;28;20015;-78
2022/07/19 08:46:25;;;;;;;;;;;;;;;;;;5104391;27;19924;-79
2022/07/19 08:48:52;;;;;;;;;;;;;;;;;;5096089;27;19932;-75
2022/07/19 08:51:19;;;;;;;;;;;;;;;;;;5098982;27;20006;-77
2022/07/19 08:53:46;;;;;;;;;;;;;;;;;;5100238;27;20026;-78
2022/07/19 08:58:58;;;;;;;;;;;43.40;8.30;;;;;;5099050;27;19938;-76
2022/07/19 09:01:25;;;;;;;;;;;43.30;8.00;;;;;;5099081;27;19971;-79
2022/07/19 09:04:09;;;;;;;;;;;43.50;4.80;;;;;;5097912;28;21137;-81
2022/07/19 09:06:39;;;;;;;;;;;42.90;4.20;;;;;;5092363;27;20616;-80
2022/07/19 09:09:06;;;;;;;;;;;43.10;3.50;;;;;;5099142;27;19994;-81
2022/07/19 09:11:35;;;;;;;;;;;43.40;2.00;;;;;;5102254;27;20019;-80
2022/07/19 09:14:06;;;;;;;;;;;43.10;1.80;;;;;;5095736;27;19932;-80
2022/07/19 09:16:47;;;;;;;;;;;42.70;1.50;;;;;;5102132;27;20019;-80
2022/07/19 09:19:14;;;;;;;;;;;42.40;1.50;;;;;;5091685;27;19932;-78
2022/07/19 09:21:53;;;;;;;;;;;42.40;1.60;;;;;;5096190;27;19932;-80
2022/07/19 09:24:20;;;;;;;;;;;42.40;1.00;;;;;;5100843;27;19931;-79
2022/07/19 09:26:58;;;;;;;;;;;42.30;1.00;;;;;;5096219;27;20787;-79
2022/07/19 09:29:25;;;;;;;;;;;42.00;1.00;;;;;;5095789;27;19957;-77
2022/07/19 09:31:59;;;;;;;;;;;42.20;1.00;;;;;;5099119;27;19937;-79
2022/07/19 09:34:29;;;;;;;;;;;41.60;1.20;;;;;;5091453;27;20489;-76
2022/07/19 09:37:08;;;;;;;;;;;41.30;1.10;;;;;;5096816;27;19928;-78
2022/07/19 09:39:34;;;;;;;;;;;41.70;1.00;;;;;;5094307;28;19975;-80
2022/07/19 09:42:03;;;;;;;;;;;41.70;1.10;;;;;;5094442;28;20014;-76
2022/07/19 09:44:29;;;;;;;;;;;42.00;1.00;;;;;;5103093;27;20358;-82
2022/07/19 09:46:56;;;;;;;;;;;42.20;1.00;;;;;;5096054;27;20102;-76
2022/07/19 09:49:23;;;;;;;;;;;41.90;1.00;;;;;;5093671;27;20347;-80
2022/07/19 09:51:50;;;;;;;;;;;42.00;1.00;;;;;;5093501;28;20019;-80
2022/07/19 09:54:19;;;;;;;;;;;41.90;1.00;;;;;;5096814;27;19957;-79
2022/07/19 09:56:46;;;;;;;;;;;41.70;1.00;;;;;;5107336;27;20450;-80
2022/07/19 09:59:15;;;;;;;;;;;41.70;1.00;;;;;;5096792;27;19924;-80
2022/07/19 10:01:42;;;;;;;;;;;42.00;1.00;;;;;;5100500;28;19954;-79
2022/07/19 10:04:09;;;;;;;;;;;42.00;1.00;;;;;;5097823;28;19924;-80
2022/07/19 10:06:36;;;;;;;;;;;41.80;1.00;;;;;;5097448;28;19979;-78
2022/07/19 10:09:03;;;;;;;;;;;41.60;1.00;;;;;;5093337;28;20000;-80
2022/07/19 10:11:30;;;;;;;;;;;41.30;1.00;;;;;;5096697;27;21273;-80
2022/07/19 10:13:57;;;;;;;;;;;41.40;1.40;;;;;;5100516;27;20035;-80
2022/07/19 10:16:37;;;;;;;;;;;41.00;3.10;;;;;;5101208;28;19924;-80
2022/07/19 10:19:06;;;;;;;;;;;39.70;5.50;;;;;;5094276;27;20019;-80
2022/07/19 10:21:33;;;;;;;;;;;38.50;8.60;;;;;;5102105;28;20073;-77
2022/07/19 10:24:00;;;;;;;;;;;37.90;9.50;;;;;;5090358;27;20015;-76
2022/07/19 10:26:36;;;;;;;;;;;37.50;8.50;;;;;;5093376;27;20571;-76
2022/07/19 10:29:09;;;;;;;;;;;37.10;6.00;;;;;;5093491;28;19934;-78
2022/07/19 10:31:38;;;;;;;;;;;36.80;6.40;;;;;;5098670;28;19923;-77
2022/07/19 10:34:05;;;;;;;;;;;36.90;6.10;;;;;;5096041;27;19982;-77
2022/07/19 10:36:33;;;;;;;;;;;36.90;6.30;;;;;;5099142;28;20015;-77
2022/07/19 10:39:29;;;;;;;;;;;37.00;6.20;;;;;;5097997;27;19927;-81
2022/07/19 10:42:06;;;;;;;;;;;37.00;5.50;;;;;;5064231;27;20976;-78
2022/07/19 10:44:33;;;;;;;;;;;36.90;5.80;;;;;;5094071;27;19947;-80
2022/07/19 10:47:01;;;;;;;;;;;36.70;5.50;;;;;;5097064;27;19932;-79
2022/07/19 10:49:42;;;;;;;;;;;36.80;6.40;;;;;;5095601;27;20015;-81
2022/07/19 10:52:27;;;;;;;;;;;36.90;5.90;;;;;;5106817;28;19923;-81
2022/07/19 10:55:09;;;;;;;;;;;36.90;11.30;;;;;;5096808;28;20397;-78
2022/07/19 10:57:36;;;;;;;;;;;36.60;12.50;;;;;;5097563;27;19969;-80
2022/07/19 11:00:16;;;;;;;;;;;36.50;14.70;;;;;;5101130;27;19943;-78
2022/07/19 11:02:44;;;;;;;;;;;36.50;16.60;;;;;;5105268;28;20019;-78
2022/07/19 11:05:20;;;;;;;;;;;36.60;16.40;;;;;;5092049;27;19925;-78
2022/07/19 11:07:48;;;;;;;;;;;36.60;16.00;;;;;;5092414;27;20294;-78
2022/07/19 11:10:21;;;;;;;;;;;36.70;16.60;;;;;;5094957;27;19928;-79
2022/07/19 11:12:48;;;;;;;;;;;36.80;16.50;;;;;;5097000;27;20395;-79
2022/07/19 11:15:18;;;;;;;;;;;37.00;15.90;;;;;;5095090;27;20430;-77
2022/07/19 11:17:56;;;;;;;;;;;37.20;15.70;;;;;;5096919;27;20301;-76
2022/07/19 11:20:23;;;;;;;;;;;37.10;15.50;;;;;;5092265;28;20007;-78
2022/07/19 11:22:50;;;;;;;;;;;37.10;15.50;;;;;;5096787;27;19931;-77
2022/07/19 11:25:17;;;;;;;;;;;37.20;15.10;;;;;;5097803;27;19930;-76
2022/07/19 11:27:45;;;;;;;;;;;37.30;14.80;;;;;;5095538;27;20755;-77
2022/07/19 11:30:12;;;;;;;;;;;37.40;15.20;;;;;;5096343;27;20015;-77
2022/07/19 11:32:41;;;;;;;;;;;37.40;14.70;;;;;;5098702;28;19931;-78
2022/07/19 11:35:11;;;;;;;;;;;37.50;14.90;;;;;;5095850;28;20379;-77
2022/07/19 11:37:39;;;;;;;;;;;37.40;14.30;;;;;;5094527;28;20367;-77
2022/07/19 11:40:06;;;;;;;;;;;37.20;14.40;;;;;;5100392;27;19938;-78
2022/07/19 11:42:35;;;;;;;;;;;37.30;15.00;;;;;;5096728;28;19970;-79
2022/07/19 11:45:08;;;;;;;;;;;37.60;14.60;;;;;;5097145;27;19923;-76
2022/07/19 11:47:35;;;;;;;;;;;37.70;14.10;;;;;;5095507;28;19923;-77
2022/07/19 11:50:05;;;;;;;;;;;38.00;14.10;;;;;;5095501;27;19955;-82
2022/07/19 11:52:43;;;;;;;;;;;37.30;14.60;;;;;;5093003;28;20436;-77
2022/07/19 11:55:10;;;;;;;;;;;37.30;14.50;;;;;;5099950;28;20014;-79
2022/07/19 11:57:37;;;;;;;;;;;37.40;14.70;;;;;;5095318;28;19967;-77
2022/07/19 12:00:04;;;;;;;;;;;37.50;14.50;;;;;;5100611;28;19931;-78
2022/07/19 12:02:49;;;;;;;;;;;37.60;14.50;;;;;;5094297;28;19931;-79
2022/07/19 12:05:16;;;;;;;;;;;37.70;14.00;;;;;;5099611;28;19974;-77
2022/07/19 12:07:47;;;;;;;;;;;37.90;14.40;;;;;;5103035;28;19974;-77
2022/07/19 12:10:28;;;;;;;;;;;37.90;14.40;;;;;;5091698;28;20459;-77
2022/07/19 12:12:55;;;;;;;;;;;37.90;14.60;;;;;;5091186;28;20028;-76
2022/07/19 12:15:23;;;;;;;;;;;38.00;14.20;;;;;;5101109;28;20411;-80
2022/07/19 12:17:56;;;;;;;;;;;37.80;13.90;;;;;;5096607;28;19924;-83
2022/07/19 12:20:23;;;;;;;;;;;37.70;14.10;;;;;;5098941;28;19999;-81
2022/07/19 12:22:52;;;;;;;;;;;37.80;13.90;;;;;;5100403;28;19967;-82
2022/07/19 12:25:34;;;;;;;;;;;38.00;14.30;;;;;;5098711;28;19977;-82
2022/07/19 12:28:00;;;;;;;;;;;37.90;13.40;;;;;;5100142;28;20026;-82
2022/07/19 12:30:28;;;;;;;;;;;37.70;13.90;;;;;;5092680;28;20022;-78
2022/07/19 12:33:05;;;;;;;;;;;37.20;14.00;;;;;;5100388;28;19931;-81
2022/07/19 12:35:41;;;;;;;;;;;37.70;13.90;;;;;;5098843;28;19967;-80
2022/07/19 12:38:11;;;;;;;;;;;37.90;13.40;;;;;;5098694;28;19959;-82
2022/07/19 12:40:39;;;;;;;;;;;37.90;13.40;;;;;;5093365;28;19970;-81
2022/07/19 12:43:06;;;;;;;;;;;38.10;13.30;;;;;;5103611;28;19946;-82
2022/07/19 12:45:34;;;;;;;;;;;38.10;13.30;;;;;;5105318;28;20402;-77
2022/07/19 12:48:01;;;;;;;;;;;38.00;13.40;;;;;;5100595;28;19967;-79
2022/07/19 12:50:30;;;;;;;;;;;38.00;13.60;;;;;;5094076;28;19924;-79
2022/07/19 12:52:57;;;;;;;;;;;38.10;13.60;;;;;;5100464;28;19982;-80
2022/07/19 12:55:26;;;;;;;;;;;38.10;13.50;;;;;;5105783;28;19924;-77
2022/07/19 12:57:54;;;;;;;;;;;38.10;13.90;;;;;;5097229;28;19934;-78
2022/07/19 13:00:22;;;;;;;;;;;38.10;14.40;;;;;;5100989;28;20468;-79
2022/07/19 13:02:49;;;;;;;;;;;38.30;14.20;;;;;;5090085;28;20314;-77
2022/07/19 13:05:16;;;;;;;;;;;38.40;13.00;;;;;;5097079;28;19951;-78
2022/07/19 13:07:42;;;;;;;;;;;38.40;13.20;;;;;;5094001;28;20031;-77
2022/07/19 13:10:09;;;;;;;;;;;38.60;13.50;;;;;;5091085;28;19975;-78
2022/07/19 13:12:38;;;;;;;;;;;38.40;13.10;;;;;;5087363;28;19931;-78
2022/07/19 13:15:05;;;;;;;;;;;38.40;13.40;;;;;;5097188;28;19924;-78
2022/07/19 13:17:32;;;;;;;;;;;38.50;13.60;;;;;;5107678;28;20390;-78
2022/07/19 13:19:59;;;;;;;;;;;38.40;13.50;;;;;;5097597;27;20014;-77
2022/07/19 13:22:25;;;;;;;;;;;38.40;13.50;;;;;;5092439;28;20382;-77
2022/07/19 13:24:52;;;;;;;;;;;38.40;13.50;;;;;;5094994;28;20035;-78
2022/07/19 13:27:20;;;;;;;;;;;38.40;13.50;;;;;;5097211;27;20359;-78
2022/07/19 13:29:48;;;;;;;;;;;38.50;13.50;;;;;;5100658;27;19971;-78
2022/07/19 13:32:15;;;;;;;;;;;38.00;13.50;;;;;;5094032;27;20022;-78
2022/07/19 13:34:41;;;;;;;;;;;37.90;13.40;;;;;;5100337;27;20347;-78
2022/07/19 13:37:08;;;;;;;;;;;38.20;12.60;;;;;;5094765;28;20129;-77
2022/07/19 13:39:35;;;;;;;;;;;38.40;12.50;;;;;;5092750;27;19924;-78
2022/07/19 13:42:02;;;;;;;;;;;38.40;12.10;;;;;;5096797;28;20663;-78
2022/07/19 13:44:28;;;;;;;;;;;38.40;11.70;;;;;;5094570;27;19963;-77
2022/07/19 13:46:57;;;;;;;;;;;38.70;11.70;;;;;;5087706;27;19954;-77
2022/07/19 13:49:24;;;;;;;;;;;38.80;11.90;;;;;;5096195;28;19932;-77
2022/07/19 13:51:51;;;;;;;;;;;38.80;12.30;;;;;;5093505;27;19932;-77
2022/07/19 13:54:18;;;;;;;;;;;38.90;11.90;;;;;;5096123;28;20386;-79
2022/07/19 13:56:44;;;;;;;;;;;38.70;12.30;;;;;;5099723;27;19927;-74
2022/07/19 13:59:11;;;;;;;;;;;38.80;11.80;;;;;;5094097;27;19924;-74
2022/07/19 14:01:38;;;;;;;;;;;39.00;11.90;;;;;;5091670;28;19927;-73
2022/07/19 14:04:06;;;;;;;;;;;39.00;11.60;;;;;;5096006;28;19974;-77
2022/07/19 14:06:33;;;;;;;;;;;38.90;11.00;;;;;;5095965;27;20017;-77
2022/07/19 14:08:59;;;;;;;;;;;38.90;10.90;;;;;;5099515;28;20668;-77
2022/07/19 14:11:26;;;;;;;;;;;39.10;10.60;;;;;;5097986;27;20022;-77
2022/07/19 14:13:53;;;;;;;;;;;39.20;10.80;;;;;;5093188;27;20015;-79
2022/07/19 14:16:19;;;;;;;;;;;39.00;10.50;;;;;;5096120;27;19985;-78
2022/07/19 14:18:46;;;;;;;;;;;39.20;10.70;;;;;;5096234;27;19965;-78
2022/07/19 14:21:15;;;;;;;;;;;39.30;10.80;;;;;;5100978;27;20649;-77
2022/07/19 14:23:42;;;;;;;;;;;39.30;10.50;;;;;;5095916;27;20415;-79
2022/07/19 14:26:08;;;;;;;;;;;39.10;9.70;;;;;;5096414;27;20026;-78
2022/07/19 14:28:35;;;;;;;;;;;39.00;10.00;;;;;;5097506;27;20529;-78
2022/07/19 14:31:02;;;;;;;;;;;39.10;9.10;;;;;;5099576;28;19924;-78
2022/07/19 14:33:29;;;;;;;;;;;39.10;8.60;;;;;;5102156;28;19951;-77
2022/07/19 14:35:55;;;;;;;;;;;39.10;8.20;;;;;;5105524;28;19963;-76